Time;durP1;ratioP1;P1;durP2;ratioP2;P2;SDS_P1;SDS_P2;PMS_P1;PMS_P2;Temp;Humidity;BMP_temperature;BMP_pressure;BME280_temperature;BME280_humidity;BME280_pressure;Samples;Min_cycle;Max_cycle;Signal;HPM_P1;HPM_P2
2022/10/27 00:01:09;;;;;;;21.83;14.90;;;;;;;12.63;100.00;101917.41;5033685;28;20180;-46
2022/10/27 00:03:34;;;;;;;16.95;14.75;;;;;;;12.57;100.00;101923.88;5033353;28;20675;-45
2022/10/27 00:06:05;;;;;;;21.10;15.38;;;;;;;12.56;100.00;101918.53;5034228;28;20574;-46
2022/10/27 00:08:30;;;;;;;21.35;16.90;;;;;;;12.52;100.00;101916.84;5033001;28;20251;-45
2022/10/27 00:11:00;;;;;;;22.23;16.23;;;;;;;12.50;100.00;101927.63;5031911;28;20241;-45
2022/10/27 00:13:27;;;;;;;25.20;16.63;;;;;;;12.58;100.00;101935.50;5031852;28;20255;-44
2022/10/27 00:15:56;;;;;;;24.63;16.90;;;;;;;12.48;100.00;101931.28;5032353;28;20210;-47
2022/10/27 00:18:22;;;;;;;20.55;17.30;;;;;;;12.45;100.00;101929.56;5032378;28;20564;-47
2022/10/27 00:21:06;;;;;;;18.05;16.15;;;;;;;12.43;100.00;101931.44;5032205;28;20172;-46
2022/10/27 00:23:32;;;;;;;21.45;16.83;;;;;;;12.39;100.00;101935.13;5030750;28;20200;-45
2022/10/27 00:25:59;;;;;;;22.45;17.63;;;;;;;12.35;100.00;101939.72;5031897;28;20345;-46
2022/10/27 00:28:25;;;;;;;24.67;17.98;;;;;;;12.35;100.00;101942.41;5031794;28;20176;-46
2022/10/27 00:31:01;;;;;;;22.90;17.05;;;;;;;12.40;100.00;101949.44;5031919;28;20184;-46
2022/10/27 00:33:27;;;;;;;23.92;17.65;;;;;;;12.36;100.00;101945.97;5030550;28;20227;-46
2022/10/27 00:35:53;;;;;;;22.90;17.85;;;;;;;12.32;100.00;101953.22;5030294;28;20292;-47
2022/10/27 00:38:20;;;;;;;21.45;18.02;;;;;;;12.32;100.00;101955.03;5031950;28;20180;-49
2022/10/27 00:40:46;;;;;;;23.45;19.75;;;;;;;12.31;100.00;101946.09;5031247;28;20408;-47
2022/10/27 00:43:40;;;;;;;24.70;18.60;;;;;;;12.34;100.00;101943.31;5031574;28;20385;-47
2022/10/27 00:46:42;;;;;;;21.77;19.10;;;;;;;12.32;100.00;101939.78;5000876;28;20291;-47
2022/10/27 00:49:09;;;;;;;23.15;17.90;;;;;;;12.27;100.00;101951.59;5029443;28;20222;-47
2022/10/27 00:51:40;;;;;;;23.52;18.90;;;;;;;12.26;100.00;101948.00;5030343;28;20717;-47
2022/10/27 00:54:06;;;;;;;27.73;18.38;;;;;;;12.19;100.00;101946.41;5030988;28;20282;-47
2022/10/27 00:56:32;;;;;;;22.23;17.48;;;;;;;12.24;100.00;101959.72;5031660;28;20259;-49
2022/10/27 00:58:57;;;;;;;20.33;17.15;;;;;;;12.17;100.00;101961.69;5030375;28;20626;-48
2022/10/27 01:01:23;;;;;;;24.00;18.38;;;;;;;12.07;100.00;101957.47;5029833;28;20611;-46
2022/10/27 01:03:49;;;;;;;24.98;19.08;;;;;;;12.04;100.00;101966.50;5030595;28;20752;-48
2022/10/27 01:06:15;;;;;;;24.63;18.30;;;;;;;12.11;100.00;101962.75;5030868;28;20263;-46
2022/10/27 01:08:41;;;;;;;24.40;20.08;;;;;;;12.14;100.00;101961.78;5031197;28;20266;-48
2022/10/27 01:11:06;;;;;;;29.20;21.75;;;;;;;12.09;100.00;101972.66;5029543;28;20180;-47
2022/10/27 01:13:32;;;;;;;25.15;19.98;;;;;;;12.16;100.00;101970.69;5030647;28;20190;-48
2022/10/27 01:16:21;;;;;;;25.60;21.05;;;;;;;12.14;100.00;101980.59;5030836;28;20188;-47
2022/10/27 01:19:22;;;;;;;27.90;22.02;;;;;;;12.14;100.00;101975.22;5031055;28;20215;-48
2022/10/27 01:22:17;;;;;;;29.85;21.50;;;;;;;12.10;100.00;101987.84;5029588;28;20317;-48
2022/10/27 01:24:55;;;;;;;23.77;20.98;;;;;;;12.14;100.00;101983.28;5030303;28;20208;-46
2022/10/27 01:27:39;;;;;;;30.13;21.42;;;;;;;12.02;100.00;101981.78;5030522;28;20714;-45
2022/10/27 01:30:08;;;;;;;29.73;21.10;;;;;;;12.00;100.00;101978.25;5030760;28;20196;-49
2022/10/27 01:32:48;;;;;;;26.60;21.70;;;;;;;12.06;100.00;101982.59;5031189;28;20184;-47
2022/10/27 01:35:38;;;;;;;27.48;22.65;;;;;;;12.00;100.00;101977.38;5028959;28;20575;-45
2022/10/27 01:38:18;;;;;;;24.38;21.75;;;;;;;11.99;100.00;101979.19;5028099;28;20568;-49
2022/10/27 01:41:08;;;;;;;30.70;23.33;;;;;;;11.97;100.00;101988.22;5030079;28;20581;-47
2022/10/27 01:43:34;;;;;;;27.88;23.05;;;;;;;11.94;100.00;101986.50;5029839;28;20521;-49
2022/10/27 01:46:04;;;;;;;29.80;23.05;;;;;;;11.92;100.00;101989.22;5029464;28;20211;-47
2022/10/27 01:48:32;;;;;;;29.02;22.73;;;;;;;11.90;100.00;101991.03;5030241;28;20610;-49
2022/10/27 01:50:58;;;;;;;28.88;23.60;;;;;;;11.86;100.00;101994.69;5023800;28;20204;-47
2022/10/27 01:53:23;;;;;;;32.92;24.35;;;;;;;11.85;100.00;101997.41;5028693;28;20172;-48
2022/10/27 01:55:59;;;;;;;35.25;26.08;;;;;;;11.89;100.00;102000.00;5028804;28;20555;-47
2022/10/27 01:58:34;;;;;;;30.13;24.08;;;;;;;11.83;100.00;102005.53;5026774;28;20172;-47
2022/10/27 02:01:35;;;;;;;29.88;25.58;;;;;;;11.72;100.00;101999.53;5028098;28;20190;-48
2022/10/27 02:04:19;;;;;;;29.70;23.70;;;;;;;11.72;100.00;102007.59;5029376;28;20263;-48
2022/10/27 02:06:56;;;;;;;24.63;22.00;;;;;;;11.74;100.00;102003.03;5029883;28;20187;-47
2022/10/27 02:09:42;;;;;;;33.40;25.98;;;;;;;11.70;100.00;102012.13;5028629;28;20230;-48
2022/10/27 02:12:26;;;;;;;31.95;24.17;;;;;;;11.71;100.00;102011.19;5029774;28;20195;-48
2022/10/27 02:14:53;;;;;;;32.90;26.65;;;;;;;11.67;100.00;102018.41;5029083;28;20229;-47
2022/10/27 02:17:22;;;;;;;30.77;24.92;;;;;;;11.65;100.00;102022.06;5029521;28;20194;-47
2022/10/27 02:19:49;;;;;;;31.67;27.75;;;;;;;11.67;100.00;102029.16;5030022;28;20286;-47
2022/10/27 02:22:15;;;;;;;31.95;26.70;;;;;;;11.64;100.00;102036.41;5029684;28;20565;-48
2022/10/27 02:24:41;;;;;;;32.78;27.05;;;;;;;11.63;100.00;102032.84;5029059;28;20613;-47
2022/10/27 02:27:25;;;;;;;30.65;24.75;;;;;;;11.63;100.00;102034.63;5029762;28;20298;-47
2022/10/27 02:29:56;;;;;;;41.30;27.17;;;;;;;11.56;100.00;102036.56;5027797;28;20219;-48
2022/10/27 02:32:23;;;;;;;35.08;27.70;;;;;;;11.54;100.00;102035.72;5029733;28;20179;-48
2022/10/27 02:34:50;;;;;;;32.85;27.17;;;;;;;11.60;100.00;102054.38;5028571;28;20219;-48
2022/10/27 02:37:30;;;;;;;32.25;26.58;;;;;;;11.51;100.00;102044.72;5027454;28;20180;-47
2022/10/27 02:39:55;;;;;;;33.47;27.33;;;;;;;11.54;100.00;102050.06;5029876;28;20180;-49
2022/10/27 02:42:21;;;;;;;38.65;28.42;;;;;;;11.46;100.00;102060.06;5029100;28;20253;-48
2022/10/27 02:44:46;;;;;;;40.78;28.08;;;;;;;11.45;100.00;102054.72;5028894;28;20298;-49
2022/10/27 02:47:12;;;;;;;36.10;28.50;;;;;;;11.44;100.00;102061.91;5029595;28;20270;-48
2022/10/27 02:49:38;;;;;;;30.65;27.20;;;;;;;11.39;100.00;102063.81;5028563;28;20731;-49
2022/10/27 02:52:04;;;;;;;36.28;28.83;;;;;;;11.41;100.00;102063.75;5029815;28;20237;-49
2022/10/27 02:54:30;;;;;;;33.88;26.67;;;;;;;11.41;100.00;102072.69;5028679;28;20204;-47
2022/10/27 02:56:57;;;;;;;37.80;29.40;;;;;;;11.43;100.00;102078.03;5029212;28;20294;-47
2022/10/27 02:59:22;;;;;;;36.63;29.08;;;;;;;11.43;100.00;102086.97;5028899;28;20566;-48
2022/10/27 03:01:48;;;;;;;34.55;29.00;;;;;;;11.38;100.00;102080.81;5029293;28;20214;-47
2022/10/27 03:04:13;;;;;;;35.72;28.98;;;;;;;11.29;100.00;102083.69;5025965;28;20240;-47
2022/10/27 03:06:39;;;;;;;34.92;28.73;;;;;;;11.33;100.00;102093.47;5027201;28;20279;-48
2022/10/27 03:09:04;;;;;;;36.40;29.65;;;;;;;11.31;100.00;102087.25;5011263;28;20194;-48
2022/10/27 03:11:30;;;;;;;33.55;28.40;;;;;;;11.34;100.00;102085.34;5028601;28;20175;-49
2022/10/27 03:13:55;;;;;;;35.08;29.27;;;;;;;11.30;100.00;102085.44;5027255;28;20693;-48
2022/10/27 03:16:21;;;;;;;36.33;29.38;;;;;;;11.27;100.00;102094.44;5029064;28;20179;-49
2022/10/27 03:18:46;;;;;;;42.40;30.45;;;;;;;11.26;100.00;102081.97;5028087;28;20639;-47
2022/10/27 03:21:12;;;;;;;39.85;30.80;;;;;;;11.25;100.00;102088.22;5028809;28;20184;-48
2022/10/27 03:23:37;;;;;;;37.83;31.02;;;;;;;11.25;100.00;102085.56;5028197;28;20199;-49
2022/10/27 03:26:02;;;;;;;39.50;30.90;;;;;;;11.21;100.00;102097.25;5028530;28;20207;-48
2022/10/27 03:28:30;;;;;;;33.95;28.67;;;;;;;11.31;100.00;102103.34;5028709;28;20231;-49
2022/10/27 03:30:56;;;;;;;43.00;31.48;;;;;;;11.17;100.00;102106.28;5027936;28;20186;-48
2022/10/27 03:33:21;;;;;;;46.35;31.20;;;;;;;11.20;100.00;102100.88;5028144;28;20176;-48
2022/10/27 03:35:47;;;;;;;44.92;32.22;;;;;;;11.21;100.00;102101.75;5027401;28;20214;-49
2022/10/27 03:38:12;;;;;;;37.60;31.08;;;;;;;11.20;100.00;102105.34;5028338;28;20238;-48
2022/10/27 03:40:38;;;;;;;39.95;32.80;;;;;;;11.24;100.00;102116.00;5028267;28;20664;-48
2022/10/27 03:43:03;;;;;;;37.28;30.75;;;;;;;11.22;100.00;102127.69;5026870;28;20207;-49
2022/10/27 03:45:28;;;;;;;40.05;31.38;;;;;;;11.22;100.00;102130.34;5028144;28;20215;-48
2022/10/27 03:48:05;;;;;;;41.42;31.85;;;;;;;11.23;100.00;102121.38;5010786;28;20210;-48
2022/10/27 03:50:31;;;;;;;41.03;32.95;;;;;;;11.20;100.00;102135.75;4995263;28;20223;-48
2022/10/27 03:52:58;;;;;;;43.13;32.25;;;;;;;11.23;100.00;102126.75;5027681;28;20188;-49
2022/10/27 03:55:24;;;;;;;44.28;33.67;;;;;;;11.21;100.00;102123.22;5020375;28;20232;-48
2022/10/27 03:57:50;;;;;;;40.75;32.60;;;;;;;11.20;100.00;102122.34;5028297;28;20705;-49
2022/10/27 04:00:16;;;;;;;46.67;32.10;;;;;;;11.22;100.00;102122.31;5027990;28;20227;-49
2022/10/27 04:02:41;;;;;;;42.20;32.05;;;;;;;11.20;100.00;102132.19;5027425;28;20196;-49
2022/10/27 04:05:07;;;;;;;43.63;34.03;;;;;;;11.21;100.00;102128.56;5025466;28;20235;-48
2022/10/27 04:07:32;;;;;;;45.13;32.13;;;;;;;11.20;100.00;102124.13;5028403;28;20187;-48
2022/10/27 04:09:58;;;;;;;44.33;32.50;;;;;;;11.16;100.00;102127.78;5028586;28;20618;-49
2022/10/27 04:12:23;;;;;;;37.38;29.92;;;;;;;11.16;100.00;102131.34;5010410;28;20191;-49
2022/10/27 04:14:49;;;;;;;36.50;31.23;;;;;;;11.14;100.00;102136.75;5027841;28;20298;-48
2022/10/27 04:17:16;;;;;;;42.33;33.03;;;;;;;11.10;100.00;102123.41;5010594;28;20196;-48
2022/10/27 04:19:41;;;;;;;39.72;31.00;;;;;;;11.08;100.00;102131.50;5028430;28;20180;-49
2022/10/27 04:22:07;;;;;;;42.25;31.67;;;;;;;11.08;100.00;102142.22;5028338;28;20192;-48
2022/10/27 04:24:33;;;;;;;45.58;33.90;;;;;;;11.10;100.00;102129.66;5027292;28;20326;-48
2022/10/27 04:26:58;;;;;;;42.25;31.00;;;;;;;11.17;100.00;102137.59;5011109;28;20279;-48
2022/10/27 04:29:24;;;;;;;32.72;28.38;;;;;;;11.20;100.00;102134.88;5028292;28;20734;-48
2022/10/27 04:31:49;;;;;;;40.75;32.13;;;;;;;11.05;100.00;102142.28;5028302;28;20182;-48
2022/10/27 04:34:14;;;;;;;40.95;32.25;;;;;;;11.10;100.00;102143.06;5030108;28;20212;-49
2022/10/27 04:36:40;;;;;;;42.38;32.55;;;;;;;11.13;100.00;102137.66;5031430;28;20267;-47
2022/10/27 04:39:06;;;;;;;36.35;30.10;;;;;;;11.10;100.00;102140.38;5031856;28;20226;-49
2022/10/27 04:41:31;;;;;;;40.95;31.45;;;;;;;11.06;100.00;102141.41;5031636;28;20846;-49
2022/10/27 04:43:57;;;;;;;45.08;33.13;;;;;;;11.15;100.00;102156.41;5031387;28;20632;-49
2022/10/27 04:46:23;;;;;;;40.30;31.48;;;;;;;11.08;100.00;102155.63;5003754;28;20187;-48
2022/10/27 04:48:48;;;;;;;39.08;31.02;;;;;;;11.12;100.00;102153.78;5031703;28;20183;-48
2022/10/27 04:51:14;;;;;;;41.63;32.50;;;;;;;11.12;100.00;102151.97;5031851;28;20184;-48
2022/10/27 04:53:39;;;;;;;37.47;30.52;;;;;;;11.10;100.00;102155.59;5030654;28;20263;-50
2022/10/27 04:56:05;;;;;;;45.17;31.92;;;;;;;11.10;100.00;102156.47;5030722;28;20621;-48
2022/10/27 04:58:31;;;;;;;38.30;30.77;;;;;;;11.12;100.00;102160.03;5018181;28;20214;-49
2022/10/27 05:00:56;;;;;;;40.55;29.33;;;;;;;11.15;100.00;102164.47;5031375;28;20176;-50
2022/10/27 05:03:22;;;;;;;40.13;30.13;;;;;;;11.08;100.00;102157.44;5028097;28;20219;-48
2022/10/27 05:05:47;;;;;;;43.45;31.10;;;;;;;11.03;100.00;102159.31;5031219;28;20552;-48
2022/10/27 05:08:13;;;;;;;41.40;31.17;;;;;;;11.02;100.00;102158.44;5031236;28;20681;-48
2022/10/27 05:10:39;;;;;;;36.47;30.02;;;;;;;11.04;100.00;102166.44;5031315;28;20178;-49
2022/10/27 05:13:04;;;;;;;37.78;28.65;;;;;;;11.04;100.00;102153.94;5030641;28;20188;-48
2022/10/27 05:15:30;;;;;;;35.65;28.63;;;;;;;11.01;100.00;102155.78;5030349;28;20711;-49
2022/10/27 05:17:55;;;;;;;44.20;29.92;;;;;;;11.00;100.00;102154.91;5031073;28;20299;-48
2022/10/27 05:20:21;;;;;;;41.78;32.08;;;;;;;10.95;100.00;102156.78;5031335;28;20621;-47
2022/10/27 05:22:47;;;;;;;40.67;30.23;;;;;;;10.98;100.00;102162.09;5030906;28;20856;-48
2022/10/27 05:25:13;;;;;;;39.03;29.83;;;;;;;10.99;100.00;102166.53;5028470;28;20334;-48
2022/10/27 05:27:39;;;;;;;37.97;29.13;;;;;;;10.99;100.00;102171.91;5030454;28;20171;-48
2022/10/27 05:30:05;;;;;;;42.42;31.73;;;;;;;10.97;100.00;102173.72;4999888;28;20315;-48
2022/10/27 05:32:31;;;;;;;37.03;28.52;;;;;;;10.96;100.00;102163.91;5031345;28;20557;-48
2022/10/27 05:34:56;;;;;;;43.65;31.50;;;;;;;10.93;100.00;102175.59;5030568;28;20196;-47
2022/10/27 05:37:22;;;;;;;40.97;30.38;;;;;;;10.92;100.00;102171.13;5029539;28;20207;-47
2022/10/27 05:39:48;;;;;;;43.00;30.15;;;;;;;10.89;100.00;102179.25;5030959;28;20214;-46
2022/10/27 05:42:13;;;;;;;37.95;29.63;;;;;;;10.97;100.00;102171.03;5030831;28;20718;-49
2022/10/27 05:44:39;;;;;;;40.92;32.08;;;;;;;10.96;100.00;102174.66;5029686;28;20236;-47
2022/10/27 05:47:04;;;;;;;41.83;30.35;;;;;;;10.89;100.00;102170.31;5030520;28;20188;-46
2022/10/27 05:49:29;;;;;;;43.47;31.50;;;;;;;10.91;100.00;102176.50;5030721;28;20215;-46
2022/10/27 05:51:55;;;;;;;44.42;32.95;;;;;;;10.87;100.00;102178.38;5030741;28;20279;-48
2022/10/27 05:54:20;;;;;;;46.40;33.03;;;;;;;10.89;100.00;102167.63;5030175;28;20215;-47
2022/10/27 05:56:48;;;;;;;41.50;31.13;;;;;;;10.91;100.00;102177.41;5030426;28;20681;-48
2022/10/27 05:59:14;;;;;;;39.70;30.02;;;;;;;10.96;100.00;102179.13;5029164;28;20271;-47
2022/10/27 06:01:39;;;;;;;40.35;30.23;;;;;;;10.92;100.00;102176.50;5016895;28;20349;-47
2022/10/27 06:04:05;;;;;;;38.40;29.23;;;;;;;10.96;100.00;102181.81;5029712;28;20596;-47
2022/10/27 06:06:30;;;;;;;41.97;31.08;;;;;;;10.91;100.00;102184.56;5030435;28;20187;-48
2022/10/27 06:08:55;;;;;;;41.42;29.98;;;;;;;10.93;100.00;102188.09;5030097;28;20184;-48
2022/10/27 06:11:21;;;;;;;38.35;28.83;;;;;;;10.88;100.00;102184.63;5030057;28;20321;-48
2022/10/27 06:13:50;;;;;;;39.90;30.38;;;;;;;10.86;100.00;102186.44;5029567;28;20200;-48
2022/10/27 06:16:16;;;;;;;47.17;29.85;;;;;;;10.87;100.00;102188.22;5030100;28;20184;-47
2022/10/27 06:18:41;;;;;;;37.83;28.33;;;;;;;10.89;100.00;102189.09;5029852;28;20253;-47
2022/10/27 06:21:07;;;;;;;39.13;30.23;;;;;;;10.86;100.00;102183.75;5029959;28;20180;-47
2022/10/27 06:23:33;;;;;;;38.03;30.42;;;;;;;10.81;100.00;102188.31;5027623;28;20203;-48
2022/10/27 06:25:58;;;;;;;35.72;27.45;;;;;;;10.83;100.00;102198.09;5029682;28;20200;-47
2022/10/27 06:28:24;;;;;;;39.08;28.98;;;;;;;10.84;100.00;102210.59;5029756;28;20192;-50
2022/10/27 06:30:49;;;;;;;34.90;28.55;;;;;;;10.88;100.00;102204.25;5028259;28;20200;-49
2022/10/27 06:33:14;;;;;;;39.20;29.98;;;;;;;10.88;100.00;102204.25;5029109;28;20592;-49
2022/10/27 06:35:40;;;;;;;39.88;29.63;;;;;;;10.91;100.00;102197.97;5028575;28;20207;-47
2022/10/27 06:38:05;;;;;;;37.72;30.33;;;;;;;10.92;100.00;102194.38;5028386;28;20184;-49
2022/10/27 06:40:31;;;;;;;36.72;29.85;;;;;;;10.91;100.00;102190.81;5030105;28;20190;-46
2022/10/27 06:42:56;;;;;;;36.13;28.20;;;;;;;10.99;100.00;102189.78;5029537;28;20196;-49
2022/10/27 06:45:22;;;;;;;33.70;26.92;;;;;;;11.03;100.00;102194.19;5030133;28;20705;-44
2022/10/27 06:47:58;;;;;;;41.58;29.98;;;;;;;11.00;100.00;102192.47;5029976;28;20548;-45
2022/10/27 06:50:24;;;;;;;34.38;27.52;;;;;;;11.08;100.00;102197.66;5012042;28;20188;-45
2022/10/27 06:52:50;;;;;;;36.67;29.77;;;;;;;11.08;100.00;102198.53;5029869;28;20183;-45
2022/10/27 06:55:15;;;;;;;35.72;29.40;;;;;;;11.12;100.00;102215.47;5029033;28;20678;-44
2022/10/27 06:57:42;;;;;;;43.00;28.60;;;;;;;11.16;100.00;102211.81;5025632;28;20234;-49
2022/10/27 07:00:09;;;;;;;38.42;27.73;;;;;;;11.19;100.00;102214.44;5029089;28;20195;-46
2022/10/27 07:02:35;;;;;;;37.42;27.75;;;;;;;11.18;100.00;102214.50;5029596;28;20584;-46
2022/10/27 07:05:01;;;;;;;37.22;26.98;;;;;;;11.22;100.00;102218.88;5029674;28;20227;-46
2022/10/27 07:07:26;;;;;;;34.25;26.88;;;;;;;11.23;100.00;102215.28;5029636;28;20176;-43
2022/10/27 07:09:51;;;;;;;42.97;27.38;;;;;;;11.28;100.00;102227.72;5029598;28;20192;-48
2022/10/27 07:12:17;;;;;;;36.85;27.58;;;;;;;11.35;100.00;102217.75;5039370;22;20292;-43
2022/10/27 07:14:42;;;;;;;42.95;28.00;;;;;;;11.37;100.00;102223.06;5043325;28;20226;-43
2022/10/27 07:17:08;;;;;;;36.72;26.73;;;;;;;11.42;100.00;102224.75;5049844;28;20174;-43
2022/10/27 07:19:33;;;;;;;37.25;26.17;;;;;;;11.47;100.00;102233.59;5040858;28;20190;-46
2022/10/27 07:21:59;;;;;;;35.65;25.98;;;;;;;11.50;100.00;102229.94;5049914;28;20545;-45
2022/10/27 07:24:24;;;;;;;34.63;25.00;;;;;;;11.54;100.00;102227.22;5049444;28;20207;-43
2022/10/27 07:26:49;;;;;;;35.08;25.00;;;;;;;11.58;100.00;102235.19;5050091;28;20266;-44
2022/10/27 07:29:15;;;;;;;33.38;24.75;;;;;;;11.63;100.00;102239.56;5033068;28;20277;-44
2022/10/27 07:31:44;;;;;;;36.70;24.50;;;;;;;11.67;100.00;102243.94;5045725;28;20206;-46
2022/10/27 07:34:10;;;;;;;33.15;24.55;;;;;;;11.71;100.00;102242.94;5029869;28;20254;-47
2022/10/27 07:36:35;;;;;;;35.38;24.38;;;;;;;11.72;100.00;102241.19;5029907;28;20180;-45
2022/10/27 07:39:01;;;;;;;34.42;23.83;;;;;;;11.80;100.00;102239.19;5034811;28;20191;-44
2022/10/27 07:41:26;;;;;;;29.88;23.45;;;;;;;11.86;100.00;102243.56;5029669;28;20184;-45
2022/10/27 07:43:52;;;;;;;30.13;23.58;;;;;;;11.87;100.00;102240.84;5031644;28;20191;-45
2022/10/27 07:46:17;;;;;;;29.92;22.00;;;;;;;11.93;100.00;102251.47;5047487;28;20187;-43
2022/10/27 07:48:43;;;;;;;29.75;22.63;;;;;;;11.92;100.00;102244.34;5049527;28;20175;-43
2022/10/27 07:51:08;;;;;;;36.97;23.48;;;;;;;11.99;100.00;102239.72;5008421;28;20179;-46
2022/10/27 07:53:34;;;;;;;28.48;22.73;;;;;;;12.07;100.00;102234.19;5034254;28;20180;-44
2022/10/27 07:55:59;;;;;;;30.45;23.27;;;;;;;12.11;100.00;102236.78;5033418;28;20224;-50
2022/10/27 07:58:24;;;;;;;33.83;21.80;;;;;;;12.16;100.00;102229.50;5035567;28;20187;-46
2022/10/27 08:00:50;;;;;;;30.38;20.40;;;;;;;12.26;100.00;102231.97;5035203;28;20273;-46
2022/10/27 08:03:21;;;;;;;31.15;20.23;;;;;;;12.28;100.00;102228.31;5020539;28;20187;-48
2022/10/27 08:05:47;;;;;;;28.27;19.95;;;;;;;12.34;100.00;102241.63;5025549;28;20272;-46
2022/10/27 08:08:14;;;;;;;31.70;21.27;;;;;;;12.41;100.00;102244.19;5039195;28;20593;-46
2022/10/27 08:10:42;;;;;;;28.70;19.50;;;;;;;12.40;100.00;102237.94;5039884;28;20184;-45
2022/10/27 08:13:08;;;;;;;30.30;19.35;;;;;;;12.45;100.00;102244.06;5039422;28;20236;-45
2022/10/27 08:15:34;;;;;;;25.42;19.70;;;;;;;12.50;100.00;102246.66;5040262;28;20200;-48
2022/10/27 08:18:02;;;;;;;26.45;19.20;;;;;;;12.49;100.00;102237.72;5037830;28;20180;-46
2022/10/27 08:20:33;;;;;;;28.27;19.55;;;;;;;12.56;100.00;102227.69;5041875;28;20277;-46
2022/10/27 08:23:05;;;;;;;26.48;18.63;;;;;;;12.70;100.00;102235.41;5042921;28;20202;-45
2022/10/27 08:25:30;;;;;;;24.30;17.42;;;;;;;12.77;100.00;102237.06;5038763;28;20211;-50
2022/10/27 08:27:57;;;;;;;21.02;16.42;;;;;;;12.81;100.00;102237.84;5040063;28;20192;-44
2022/10/27 08:30:24;;;;;;;26.20;17.92;;;;;;;12.80;100.00;102231.59;5039722;28;20250;-44
2022/10/27 08:32:55;;;;;;;25.88;16.90;;;;;;;12.97;100.00;102220.41;5039422;28;20191;-47
2022/10/27 08:35:20;;;;;;;28.13;16.88;;;;;;;13.03;100.00;102213.97;5039668;28;20313;-48
2022/10/27 08:37:46;;;;;;;20.23;15.50;;;;;;;13.31;100.00;102222.22;5023069;28;20190;-45
2022/10/27 08:40:11;;;;;;;21.75;15.57;;;;;;;13.51;100.00;102218.97;5042156;28;20187;-44
2022/10/27 08:42:45;;;;;;;24.17;14.93;;;;;;;13.43;100.00;102215.63;5037529;28;20678;-49
2022/10/27 08:45:28;;;;;;;20.63;14.35;;;;;;;13.35;100.00;102219.38;5039564;28;20310;-48
2022/10/27 08:47:58;;;;;;;20.98;14.73;;;;;;;13.29;100.00;102207.91;5038387;28;20551;-47
2022/10/27 08:50:27;;;;;;;16.67;13.80;;;;;;;13.47;100.00;102214.59;5039579;28;20195;-46
2022/10/27 08:53:07;;;;;;;19.27;13.60;;;;;;;13.48;100.00;102219.94;5038901;28;20624;-44
2022/10/27 08:55:44;;;;;;;19.17;13.32;;;;;;;13.63;100.00;102215.94;5039781;28;20247;-45
2022/10/27 08:58:30;;;;;;;15.23;13.50;;;;;;;13.77;100.00;102218.22;5039365;28;20192;-44
2022/10/27 09:01:03;;;;;;;19.40;13.65;;;;;;;13.91;100.00;102210.63;5040078;28;20258;-47
2022/10/27 09:03:50;;;;;;;25.88;13.45;;;;;;;14.10;100.00;102207.34;5040555;28;20274;-45
2022/10/27 09:06:22;;;;;;;17.27;12.25;;;;;;;14.20;100.00;102208.84;5040008;28;20553;-44
2022/10/27 09:09:15;;;;;;;21.95;12.10;;;;;;;13.99;100.00;102204.97;5031523;28;20676;-44
2022/10/27 09:12:15;;;;;;;13.52;11.70;;;;;;;14.00;100.00;102204.94;5022091;28;20192;-44
2022/10/27 09:15:11;;;;;;;18.35;11.90;;;;;;;14.20;100.00;102212.41;5042355;28;20669;-47
2022/10/27 09:17:41;;;;;;;17.02;11.15;;;;;;;14.28;100.00;102204.09;5039015;28;20267;-46
2022/10/27 09:20:26;;;;;;;19.17;11.27;;;;;;;14.38;100.00;102204.66;5041373;28;20546;-47
2022/10/27 09:22:56;;;;;;;18.70;11.50;;;;;;;14.38;100.00;102200.16;5038623;28;20271;-44
2022/10/27 09:25:22;;;;;;;23.73;11.30;;;;;;;14.53;100.00;102204.16;5027911;28;20218;-43
2022/10/27 09:27:52;;;;;;;18.83;10.55;;;;;;;14.60;100.00;102202.19;5038991;28;20630;-43
2022/10/27 09:30:18;;;;;;;15.77;10.18;;;;;;;14.50;100.00;102208.81;5040083;28;20192;-45
2022/10/27 09:32:47;;;;;;;15.82;10.43;;;;;;;14.50;100.00;102201.59;5039996;28;20213;-46
2022/10/27 09:35:15;;;;;;;15.07;9.82;;;;;;;14.60;100.00;102204.88;5041767;28;20277;-45
2022/10/27 09:37:41;;;;;;;18.17;10.63;;;;;;;14.44;100.00;102196.38;5033927;28;20536;-47
2022/10/27 09:40:16;;;;;;;19.45;11.52;;;;;;;14.22;100.00;102197.06;5038418;28;20198;-43
2022/10/27 09:42:42;;;;;;;16.58;11.15;;;;;;;14.35;100.00;102194.88;5037597;28;20193;-49
2022/10/27 09:45:14;;;;;;;15.57;11.10;;;;;;;14.39;100.00;102191.16;5038861;28;20216;-45
2022/10/27 09:47:42;;;;;;;20.50;11.05;;;;;;;14.36;100.00;102193.03;5037065;28;20187;-44
2022/10/27 09:50:17;;;;;;;16.02;11.10;;;;;;;14.34;100.00;102201.22;5031899;28;20618;-44
2022/10/27 09:52:43;;;;;;;16.00;9.77;;;;;;;14.35;100.00;102202.97;5031504;28;20211;-46
2022/10/27 09:55:10;;;;;;;18.65;10.68;;;;;;;14.44;100.00;102191.00;5033522;28;20200;-45
2022/10/27 09:57:38;;;;;;;14.27;10.05;;;;;;;14.63;100.00;102199.41;5027742;28;20237;-44
2022/10/27 10:00:22;;;;;;;18.15;10.85;;;;;;;14.66;100.00;102195.72;5051453;28;20885;-44
2022/10/27 10:03:05;;;;;;;15.80;9.55;;;;;;;14.93;100.00;102191.19;5051568;28;20177;-44
2022/10/27 10:05:34;;;;;;;13.18;9.73;;;;;;;15.12;100.00;102189.59;5034498;28;20247;-44
2022/10/27 10:08:23;;;;;;;10.52;8.45;;;;;;;15.30;100.00;102192.59;5031601;28;20952;-45
2022/10/27 10:10:56;;;;;;;17.83;8.95;;;;;;;15.39;100.00;102181.44;5031346;28;20176;-44
2022/10/27 10:13:22;;;;;;;12.05;7.88;;;;;;;15.64;100.00;102176.91;5031466;28;20234;-46
2022/10/27 10:16:03;;;;;;;14.65;8.07;;;;;;;15.79;100.00;102180.88;5031492;28;20188;-45
2022/10/27 10:18:29;;;;;;;13.48;8.13;;;;;;;15.47;100.00;102173.94;5031227;28;20261;-43
2022/10/27 10:20:57;;;;;;;15.20;7.35;;;;;;;15.63;100.00;102179.66;5031666;28;20176;-43
2022/10/27 10:23:25;;;;;;;13.40;7.30;;;;;;;15.54;100.00;102175.47;5031263;28;20635;-42
2022/10/27 10:25:53;;;;;;;14.55;7.55;;;;;;;15.47;100.00;102173.94;5014176;28;20192;-43
2022/10/27 10:28:32;;;;;;;14.50;6.70;;;;;;;15.67;100.00;102181.28;5042187;28;20591;-44
2022/10/27 10:31:00;;;;;;;10.25;6.13;;;;;;;15.65;100.00;102170.56;5050636;28;20168;-46
2022/10/27 10:33:32;;;;;;;12.70;6.68;;;;;;;15.61;100.00;102158.13;5046936;28;20186;-43
2022/10/27 10:35:57;;;;;;;16.13;6.20;;;;;;;15.56;100.00;102164.63;5034106;28;20274;-44
2022/10/27 10:38:22;;;;;;;11.88;6.53;;;;;;;15.59;100.00;102157.28;5036234;28;20219;-44
2022/10/27 10:41:12;;;;;;;9.07;5.95;;;;;;;15.70;100.00;102156.88;5031075;28;20646;-44
2022/10/27 10:43:39;;;;;;;10.70;5.60;;;;;;;15.85;100.00;102166.22;5031068;28;20226;-46
2022/10/27 10:46:06;;;;;;;12.20;6.38;;;;;;;15.86;100.00;102157.19;5042304;28;20193;-45
2022/10/27 10:48:41;;;;;;;13.15;6.38;;;;;;;15.89;100.00;102172.41;5032785;28;20271;-46
2022/10/27 10:51:08;;;;;;;9.05;5.35;;;;;;;15.97;100.00;102165.75;5032719;28;20219;-44
2022/10/27 10:53:41;;;;;;;12.40;5.32;;;;;;;15.95;100.00;102159.53;5047633;28;20278;-47
2022/10/27 10:56:27;;;;;;;8.57;5.15;;;;;;;16.01;100.00;102163.81;5050749;28;20183;-46
2022/10/27 10:59:06;;;;;;;10.77;5.30;;;;;;;16.01;100.00;102158.41;5046690;28;20202;-44
2022/10/27 11:01:53;;;;;;;11.70;5.60;;;;;;;16.12;100.00;102166.09;5015314;28;20547;-46
2022/10/27 11:04:24;;;;;;;9.55;4.80;;;;;;;16.23;100.00;102153.91;5030499;28;20748;-44
2022/10/27 11:07:03;;;;;;;9.73;5.30;;;;;;;16.45;100.00;102145.78;5030520;28;20214;-45
2022/10/27 11:09:47;;;;;;;13.13;4.72;;;;;;;16.67;100.00;102144.88;5030608;28;20163;-43
2022/10/27 11:12:36;;;;;;;9.40;5.03;;;;;;;16.72;100.00;102148.25;5030398;28;20851;-46